Latest Weather Observations for Hartz Mountains

IDT60801

Issued at 11:35 pm EDT Thursday 23 October 2014 (issued every 30 minutes, with the page automatically refreshed every 10 minutes)

About weather observations | Map of weather stations | Latest weather observations for TAS | Other Formats
Station Details ID: 094191 Name: HARTZ MOUNTAIN (KEOGHS PIMPLE) Lat: -43.20 Lon: 146.77 Height: 831.0 m
Data from the previous 72 hours. | See also: Recent months at Hartz Mountains
Date/Time
EDT
Temp
°C
App
Temp
°C
Dew
Point
Rel
Hum
%
Delta-T
°C
Wind Press
QNH
hPa
Press
MSL
hPa
Rain
since 9 am
mm
Dir
 
Spd
km/h
Gust
km/h
Spd
kts
Gust
kts
23/11:30pm 4.5 1.1 2.0 84 1.1 N 9 17 5 9 - - 0.2
23/11:00pm 4.1 0.9 2.9 92 0.5 N 9 13 5 7 - - 0.2
23/10:30pm 3.6 0.3 2.7 94 0.4 NNE 9 13 5 7 - - 0.2
23/10:00pm 3.6 0.0 2.7 94 0.4 NE 11 13 6 7 - - 0.2
23/09:30pm 4.2 0.3 3.3 94 0.4 ENE 13 20 7 11 - - 0.2
23/09:00pm 4.3 0.4 3.4 94 0.4 ENE 13 17 7 9 - - 0.2
23/08:30pm 4.4 0.9 3.5 94 0.4 ESE 11 17 6 9 - - 0.2
23/08:00pm 4.3 0.3 3.1 92 0.5 SSE 13 17 7 9 - - 0.2
23/07:30pm 5.2 0.6 3.5 89 0.7 ESE 17 22 9 12 - - 0.2
23/07:00pm 6.4 1.8 3.6 82 1.2 SE 17 20 9 11 - - 0.2
23/06:30pm 7.1 1.6 3.9 80 1.4 SE 22 30 12 16 - - 0.2
23/06:00pm 8.7 3.8 4.3 74 2.0 ESE 19 26 10 14 - - 0.2
23/05:30pm 9.8 5.4 5.0 72 2.3 ESE 17 24 9 13 - - 0.2
23/05:00pm 10.6 5.8 4.5 66 2.9 ESE 19 22 10 12 - - 0.2
23/04:30pm 12.4 8.0 4.6 59 3.7 ENE 17 20 9 11 - - 0.2
23/04:00pm 12.7 8.3 4.7 58 3.8 ENE 17 22 9 12 - - 0.2
23/03:30pm 13.2 9.6 4.9 57 4.0 ENE 13 19 7 10 - - 0.2
23/03:00pm 13.4 9.6 4.0 53 4.5 ENE 13 20 7 11 - - 0.2
23/02:30pm 12.4 7.9 4.4 58 3.8 E 17 30 9 16 - - 0.2
23/02:00pm 12.9 8.3 3.6 53 4.4 E 17 24 9 13 - - 0.2
23/01:30pm 12.5 8.4 4.2 57 3.9 ENE 15 24 8 13 - - 0.2
23/01:00pm 11.4 6.5 3.9 60 3.5 E 19 30 10 16 - - 0.2
23/12:30pm 12.0 7.3 5.2 63 3.3 E 19 35 10 19 - - 0.0
23/12:00pm 10.6 6.0 5.4 70 2.5 ENE 19 24 10 13 - - 0.0
23/11:30am 9.1 4.4 3.1 66 2.7 E 17 26 9 14 - - 0.0
23/11:00am 9.2 4.6 3.6 68 2.6 E 17 28 9 15 - - 0.0
23/10:30am 8.7 4.1 3.9 72 2.2 E 17 28 9 15 - - 0.0
23/10:00am 7.8 2.8 3.8 76 1.8 ENE 19 26 10 14 - - 0.0
23/09:30am 4.5 -0.3 2.8 89 0.7 ESE 17 24 9 13 - - 0.0
23/09:00am 4.1 -0.7 2.6 90 0.6 ESE 17 30 9 16 - - 0.2
23/08:30am 3.9 -0.1 2.9 93 0.4 ESE 13 20 7 11 - - 0.2
23/08:00am 3.5 -0.2 2.6 94 0.4 ESE 11 20 6 11 - - 0.2
23/07:30am 2.9 0.0 2.5 97 0.2 SSE 7 13 4 7 - - 0.2
23/07:00am 2.3 -0.6 1.7 96 0.2 SE 6 13 3 7 - - 0.2
23/06:30am 1.8 -1.4 0.9 94 0.4 S 7 11 4 6 - - 0.2
23/06:00am 1.7 -2.3 0.8 94 0.4 SW 11 17 6 9 - - 0.2
23/05:30am 2.1 0.0 1.4 95 0.3 NE 2 7 1 4 - - 0.2
23/05:00am 2.3 -0.9 0.5 88 0.7 S 7 9 4 5 - - 0.2
23/04:30am 2.6 0.5 1.4 92 0.5 S 2 6 1 3 - - 0.2
23/04:00am 2.7 -1.1 1.7 93 0.4 SSW 11 13 6 7 - - 0.2
23/03:30am 3.1 -0.2 2.4 95 0.3 SSW 9 13 5 7 - - 0.2
23/03:00am 3.8 0.2 3.2 96 0.3 SW 11 17 6 9 - - 0.2
23/02:30am 4.4 0.6 4.0 97 0.2 WSW 13 19 7 10 - - 0.2
23/02:00am 5.1 2.7 4.5 96 0.3 SSW 6 15 3 8 - - 0.2
23/01:30am 5.8 3.6 5.2 96 0.3 SSE 6 17 3 9 - - 0.2
23/01:00am 6.1 3.0 5.7 97 0.2 S 11 19 6 10 - - 0.2
23/12:30am 6.5 2.4 6.1 97 0.2 SSW 17 30 9 16 - - 0.0
23/12:00am 7.0 3.4 6.6 97 0.2 S 15 20 8 11 - - 0.0
 
Date/Time
EDT
Temp
°C
App
Temp
°C
Dew
Point
Rel
Hum
%
Delta-T
°C
Wind Press
QNH
hPa
Press
MSL
hPa
Rain
since 9 am
mm
Dir
 
Spd
km/h
Gust
km/h
Spd
kts
Gust
kts
22/11:30pm 7.0 2.6 6.7 98 0.1 SW 19 39 10 21 - - 0.0
22/11:00pm 7.4 4.3 7.1 98 0.1 SSW 13 28 7 15 - - 0.0
22/10:30pm 7.7 2.9 7.3 97 0.2 WSW 22 35 12 19 - - 0.0
22/10:00pm 8.2 4.8 7.6 96 0.3 SSW 15 26 8 14 - - 0.0
22/09:30pm 8.7 4.1 8.3 97 0.2 SW 22 32 12 17 - - 0.0
22/09:00pm 8.9 2.2 8.3 96 0.3 WSW 33 48 18 26 - - 0.0
22/08:30pm 9.3 0.2 8.5 95 0.4 WSW 46 57 25 31 - - 0.0
22/08:00pm 9.9 3.5 8.7 92 0.6 WSW 32 43 17 23 - - 0.0
22/07:40pm 10.3 3.7 8.7 90 0.8 W 33 52 18 28 - - 0.0
22/07:30pm 10.4 3.5 8.7 89 0.9 W 35 50 19 27 - - 0.0
22/07:05pm 10.6 2.1 8.5 87 1.1 W 43 61 23 33 - - 0.0
22/07:00pm 10.8 1.7 8.6 86 1.1 W 46 63 25 34 - - 0.0
22/06:30pm 11.9 3.8 8.6 80 1.7 W 41 50 22 27 - - 0.0
22/06:00pm 13.3 3.9 8.8 74 2.4 W 48 59 26 32 - - 0.0
22/05:30pm 13.8 6.0 8.4 70 2.8 W 39 54 21 29 - - 0.0
22/05:27pm 14.0 6.2 8.4 69 2.9 W 39 46 21 25 - - 0.0
22/05:00pm 14.6 11.0 8.5 67 3.2 NW 17 24 9 13 - - 0.0
22/04:30pm 15.2 10.0 8.9 66 3.4 W 26 46 14 25 - - 0.0
22/04:02pm 16.3 10.4 7.3 55 4.7 W 28 46 15 25 - - 0.0
22/04:00pm 16.5 10.6 7.7 56 4.6 W 28 35 15 19 - - 0.0
22/03:30pm 17.1 9.6 6.3 49 5.5 SW 35 48 19 26 - - 0.0
22/03:00pm 19.9 14.6 6.6 42 7.0 WSW 24 35 13 19 - - 0.0
22/02:30pm 20.1 12.4 5.4 38 7.5 WSW 35 50 19 27 - - 0.0
22/02:00pm 21.2 16.4 8.8 45 6.8 W 24 35 13 19 - - 0.0
22/01:30pm 17.9 11.8 6.4 47 5.9 W 28 43 15 23 - - 0.0
22/01:00pm 20.6 15.3 6.9 41 7.3 W 24 41 13 22 - - 0.0
22/12:42pm 18.9 12.3 4.3 38 7.3 W 28 46 15 25 - - 0.0
22/12:30pm 18.7 12.5 6.2 44 6.5 W 28 41 15 22 - - 0.0
22/12:12pm 18.9 12.7 6.1 43 6.6 W 28 46 15 25 - - 0.0
22/12:00pm 17.8 12.0 6.3 47 5.9 W 26 48 14 26 - - 0.0
22/11:30am 17.1 10.6 4.8 44 6.1 W 28 46 15 25 - - 0.0
22/11:23am 17.4 10.8 4.4 42 6.4 W 28 46 15 25 - - 0.0
22/11:00am 16.7 9.8 2.3 38 6.8 W 28 35 15 19 - - 0.0
22/10:30am 15.7 8.3 -0.9 32 7.3 W 28 39 15 21 - - 0.0
22/10:00am 15.6 9.4 -2.8 28 7.7 W 20 28 11 15 - - 0.0
22/09:30am 14.2 7.1 -4.5 27 7.5 W 24 33 13 18 - - 0.0
22/09:00am 13.3 5.9 -3.9 30 6.9 W 26 35 14 19 - - 0.0
22/08:30am 12.9 5.4 -4.2 30 6.8 W 26 33 14 18 - - 0.0
22/08:00am 11.9 2.4 -7.0 26 7.0 W 35 43 19 23 - - 0.0
22/07:30am 12.0 1.5 -6.4 27 6.9 W 41 48 22 26 - - 0.0
22/07:00am 11.7 3.7 -5.7 29 6.6 W 28 37 15 20 - - 0.0
22/06:30am 11.0 2.9 -6.3 29 6.4 W 28 33 15 18 - - 0.0
22/06:00am 10.6 2.0 -4.6 34 5.8 W 32 37 17 20 - - 0.0
22/05:30am 10.4 2.8 -5.6 32 6.0 W 26 35 14 19 - - 0.0
22/05:00am 8.7 1.9 -1.7 48 4.2 W 24 30 13 16 - - 0.0
22/04:30am 8.6 1.4 0.6 57 3.4 WNW 28 33 15 18 - - 0.0
22/04:00am 7.8 2.4 2.5 69 2.3 WNW 20 24 11 13 - - 0.0
22/03:30am 6.4 2.4 2.9 78 1.5 WNW 13 15 7 8 - - 0.0
22/03:00am 7.4 3.4 3.1 74 1.9 NNW 13 17 7 9 - - 0.0
22/02:30am 7.0 3.8 3.3 77 1.6 WNW 9 13 5 7 - - 0.0
22/02:00am 7.8 3.5 3.3 73 2.0 NNW 15 19 8 10 - - 0.0
22/01:30am 7.8 3.9 3.3 73 2.0 NW 13 17 7 9 - - 0.0
22/01:00am 8.3 3.6 3.4 71 2.2 NNW 17 20 9 11 - - 0.0
22/12:30am 8.8 5.2 3.2 68 2.5 NW 11 17 6 9 - - 0.0
22/12:00am 9.4 5.8 3.2 65 2.8 NNW 11 20 6 11 - - 0.0
 
Date/Time
EDT
Temp
°C
App
Temp
°C
Dew
Point
Rel
Hum
%
Delta-T
°C
Wind Press
QNH
hPa
Press
MSL
hPa
Rain
since 9 am
mm
Dir
 
Spd
km/h
Gust
km/h
Spd
kts
Gust
kts
21/11:30pm 9.6 6.4 2.9 63 3.0 NNW 9 15 5 8 - - 0.0
21/11:00pm 10.0 6.4 3.1 62 3.1 NNW 11 19 6 10 - - 0.0
21/10:30pm 9.4 6.9 4.0 69 2.5 N 6 9 3 5 - - 0.0
21/10:00pm 9.8 7.8 4.4 69 2.5 ENE 4 7 2 4 - - 0.0
21/09:30pm 9.9 8.3 4.5 69 2.5 ESE 2 6 1 3 - - 0.0
21/09:00pm 9.7 7.2 4.9 72 2.3 ESE 7 9 4 5 - - 0.0
21/08:30pm 9.3 6.4 4.9 74 2.1 E 9 11 5 6 - - 0.0
21/08:00pm 10.3 8.1 5.1 70 2.5 ESE 6 7 3 4 - - 0.0
21/07:30pm 10.6 8.3 5.6 71 2.4 SE 7 7 4 4 - - 0.0
21/07:00pm 12.2 9.6 6.0 66 3.1 ESE 9 11 5 6 - - 0.0
21/06:30pm 13.2 10.3 6.3 63 3.4 ESE 11 13 6 7 - - 0.0
21/06:00pm 14.1 11.5 6.2 59 4.0 ESE 9 13 5 7 - - 0.0
21/05:30pm 15.2 12.7 4.9 50 5.1 NE 7 9 4 5 - - 0.0
21/05:00pm 15.2 12.3 4.9 50 5.1 NE 9 15 5 8 - - 0.0
21/04:30pm 15.0 11.8 5.0 51 4.9 N 11 17 6 9 - - 0.0
21/04:00pm 14.8 11.1 4.2 49 5.1 N 13 20 7 11 - - 0.0
21/03:30pm 15.6 12.2 4.0 46 5.6 N 11 17 6 9 - - 0.0
21/03:00pm 15.4 12.4 3.9 46 5.6 N 9 19 5 10 - - 0.0
21/02:30pm 14.8 11.3 3.6 47 5.3 NNE 11 19 6 10 - - 0.0
21/02:00pm 14.8 11.1 6.4 57 4.2 NNE 15 20 8 11 - - 0.0
21/01:30pm 13.3 9.4 5.2 58 4.0 NNE 15 24 8 13 - - 0.0
21/01:00pm 13.4 10.8 4.0 53 4.5 NE 7 15 4 8 - - 0.0
21/12:30pm 12.4 8.8 4.9 60 3.6 NNE 13 20 7 11 - - 0.0
21/12:00pm 13.7 11.3 5.1 56 4.2 NNE 7 15 4 8 - - 0.0
21/11:30am 12.5 9.5 5.9 64 3.3 NNE 11 20 6 11 - - 0.0
21/11:00am 11.9 9.0 6.4 69 2.7 ENE 11 19 6 10 - - 0.0
21/10:30am 10.9 7.8 5.4 69 2.6 ENE 11 17 6 9 - - 0.0
21/10:00am 10.5 7.3 5.3 70 2.5 ENE 11 20 6 11 - - 0.0
21/09:30am 9.6 6.3 4.6 71 2.3 ENE 11 15 6 8 - - 0.0
21/09:00am 8.7 5.7 3.9 72 2.2 ENE 9 13 5 7 - - 0.2
21/08:30am 8.0 4.7 2.7 69 2.3 E 9 11 5 6 - - 0.2
21/08:00am 7.4 5.2 3.5 76 1.7 ENE 4 9 2 5 - - 0.2
21/07:30am 6.2 4.2 2.3 76 1.7 SSE 2 7 1 4 - - 0.2
21/07:00am 4.5 -0.4 2.0 84 1.1 WSW 17 24 9 13 - - 0.2
21/06:30am 3.6 -1.7 1.6 87 0.8 WSW 19 26 10 14 - - 0.2
21/06:00am 3.8 -0.4 1.8 87 0.8 WSW 13 20 7 11 - - 0.2
21/05:30am 3.4 0.3 1.6 88 0.7 NNW 7 15 4 8 - - 0.2
21/05:00am 2.6 -2.0 1.3 91 0.5 W 15 22 8 12 - - 0.2
21/04:30am 2.1 -2.2 1.2 94 0.4 WNW 13 20 7 11 - - 0.2
21/04:00am 1.6 -3.4 1.3 98 0.1 WNW 17 20 9 11 - - 0.2
21/03:30am 1.3 -3.4 1.0 98 0.1 NW 15 17 8 9 - - 0.2
21/03:00am 1.4 -2.5 1.1 98 0.1 WNW 11 13 6 7 - - 0.2
21/02:30am 1.5 -1.6 1.1 97 0.2 WNW 7 9 4 5 - - 0.2
21/02:00am 1.9 -0.6 1.3 96 0.2 WNW 4 7 2 4 - - 0.2
21/01:30am 2.3 -0.7 1.9 97 0.2 N 7 11 4 6 - - 0.2
21/01:00am 2.6 -0.7 2.2 97 0.2 NE 9 13 5 7 - - 0.2
21/12:30am 2.6 -0.7 2.2 97 0.2 NE 9 13 5 7 - - 0.2
21/12:00am 2.6 -0.8 2.0 96 0.2 ENE 9 15 5 8 - - 0.2

Other Formats:

Comma delimited format used in spreadsheet applications
http://www.bom.gov.au/fwo/IDT60801/IDT60801.94977.axf

JavaScript Object Notation format (JSON) in row-major order
http://www.bom.gov.au/fwo/IDT60801/IDT60801.94977.json